Time;durP1;ratioP1;P1;durP2;ratioP2;P2;SDS_P1;SDS_P2;PMS_P1;PMS_P2;Temp;Humidity;BMP_temperature;BMP_pressure;BME280_temperature;BME280_humidity;BME280_pressure;Samples;Min_cycle;Max_cycle;Signal;HPM_P1;HPM_P2
2022/06/21 00:01:10;;;;;;;;;;;22.80;83.30;;;;;;5116846;28;19972;-96
2022/06/21 00:03:38;;;;;;;;;;;22.90;83.10;;;;;;5116985;28;19962;-96
2022/06/21 00:06:09;;;;;;;;;;;22.90;82.90;;;;;;5115709;28;19952;-96
2022/06/21 00:08:39;;;;;;;;;;;22.90;82.80;;;;;;5117642;28;19933;-96
2022/06/21 00:11:28;;;;;;;;;;;22.80;82.50;;;;;;5117592;28;19975;-96
2022/06/21 00:13:57;;;;;;;;;;;22.80;82.70;;;;;;5118229;28;19934;-96
2022/06/21 00:16:30;;;;;;;;;;;22.90;82.60;;;;;;5117569;28;19954;-96
2022/06/21 00:19:02;;;;;;;;;;;23.00;81.90;;;;;;5114231;28;20006;-96
2022/06/21 00:21:32;;;;;;;;;;;23.10;81.70;;;;;;5115917;28;20014;-96
2022/06/21 00:23:57;;;;;;;;;;;23.10;81.50;;;;;;5113334;28;19941;-94
2022/06/21 00:26:24;;;;;;;;;;;23.00;81.60;;;;;;5112122;28;19959;-96
2022/06/21 00:28:50;;;;;;;;;;;22.90;81.60;;;;;;5112227;28;19939;-96
2022/06/21 00:31:20;;;;;;;;;;;22.90;82.10;;;;;;5112470;28;19939;-96
2022/06/21 00:33:46;;;;;;;;;;;22.80;82.30;;;;;;5110087;28;19951;-95
2022/06/21 00:36:25;;;;;;;;;;;22.80;81.90;;;;;;5110982;28;19978;-96
2022/06/21 00:38:52;;;;;;;;;;;22.80;82.10;;;;;;5109774;28;19951;-95
2022/06/21 00:41:20;;;;;;;;;;;22.70;82.20;;;;;;5111054;28;19971;-96
2022/06/21 00:43:48;;;;;;;;;;;22.70;82.40;;;;;;5110107;28;19942;-96
2022/06/21 00:46:37;;;;;;;;;;;22.60;82.30;;;;;;5110471;28;20011;-96
2022/06/21 00:49:06;;;;;;;;;;;22.60;82.40;;;;;;5111233;28;19939;-96
2022/06/21 00:51:35;;;;;;;;;;;22.60;82.70;;;;;;5107484;28;19949;-95
2022/06/21 00:54:05;;;;;;;;;;;22.50;83.00;;;;;;5099576;28;20414;-95
2022/06/21 00:56:36;;;;;;;;;;;22.30;83.40;;;;;;5100363;28;20086;-96
2022/06/21 00:59:17;;;;;;;;;;;22.30;83.60;;;;;;5100029;28;19942;-96
2022/06/21 01:01:43;;;;;;;;;;;22.20;84.00;;;;;;5099303;28;19981;-96
2022/06/21 01:04:15;;;;;;;;;;;22.10;84.10;;;;;;5107419;28;19985;-96
2022/06/21 01:06:43;;;;;;;;;;;22.10;84.20;;;;;;5110144;28;20017;-95
2022/06/21 01:09:18;;;;;;;;;;;22.10;83.90;;;;;;5112602;28;20040;-96
2022/06/21 01:11:54;;;;;;;;;;;22.10;83.30;;;;;;5114010;28;19945;-95
2022/06/21 01:14:21;;;;;;;;;;;22.10;83.20;;;;;;5113922;28;19940;-95
2022/06/21 01:16:48;;;;;;;;;;;22.10;83.40;;;;;;5114537;28;19942;-95
2022/06/21 01:19:35;;;;;;;;;;;22.10;83.40;;;;;;5113468;28;19967;-95
2022/06/21 01:22:07;;;;;;;;;;;22.10;83.70;;;;;;5114136;28;19984;-96
2022/06/21 01:24:38;;;;;;;;;;;21.90;83.90;;;;;;5118499;28;19951;-96
2022/06/21 01:27:06;;;;;;;;;;;21.80;84.70;;;;;;5117543;28;19962;-96
2022/06/21 01:29:35;;;;;;;;;;;21.80;85.00;;;;;;5117934;28;19963;-96
2022/06/21 01:32:03;;;;;;;;;;;21.80;84.70;;;;;;5118059;28;19958;-96
2022/06/21 01:34:30;;;;;;;;;;;21.80;84.70;;;;;;5119311;28;19948;-96
2022/06/21 01:37:12;;;;;;;;;;;21.90;85.10;;;;;;5117772;28;19944;-96
2022/06/21 01:40:01;;;;;;;;;;;22.00;85.10;;;;;;5118064;28;19951;-95
2022/06/21 01:42:29;;;;;;;;;;;22.20;84.90;;;;;;5118133;28;19961;-94
2022/06/21 01:45:01;;;;;;;;;;;22.20;84.70;;;;;;5118559;28;19947;-96
2022/06/21 01:47:30;;;;;;;;;;;22.30;84.10;;;;;;5118725;28;19953;-95
2022/06/21 01:50:00;;;;;;;;;;;22.30;84.10;;;;;;5116740;28;19939;-96
2022/06/21 01:52:27;;;;;;;;;;;22.30;83.90;;;;;;5115000;28;19937;-96
2022/06/21 01:54:56;;;;;;;;;;;22.30;83.90;;;;;;5114202;28;19948;-94
2022/06/21 01:57:23;;;;;;;;;;;22.40;84.00;;;;;;5107905;28;20057;-96
2022/06/21 01:59:50;;;;;;;;;;;22.30;84.10;;;;;;5104049;28;19942;-96
2022/06/21 02:02:28;;;;;;;;;;;22.10;84.60;;;;;;5102418;28;20464;-95
2022/06/21 02:04:54;;;;;;;;;;;22.00;85.10;;;;;;5102070;28;19948;-95
2022/06/21 02:07:21;;;;;;;;;;;21.90;85.00;;;;;;5102550;28;19940;-95
2022/06/21 02:10:07;;;;;;;;;;;21.80;84.10;;;;;;5109857;28;20008;-95
2022/06/21 02:12:34;;;;;;;;;;;21.70;84.00;;;;;;5109915;28;19941;-96
2022/06/21 02:15:01;;;;;;;;;;;21.80;84.30;;;;;;5110300;28;19942;-96
2022/06/21 02:17:31;;;;;;;;;;;21.70;84.60;;;;;;5109959;28;19998;-96
2022/06/21 02:20:03;;;;;;;;;;;21.70;84.80;;;;;;5109702;28;19944;-95
2022/06/21 02:22:30;;;;;;;;;;;21.80;84.60;;;;;;5109814;28;19964;-96
2022/06/21 02:24:57;;;;;;;;;;;21.70;84.30;;;;;;5110411;28;19945;-96
2022/06/21 02:27:23;;;;;;;;;;;21.50;84.40;;;;;;5110164;28;19979;-96
2022/06/21 02:29:51;;;;;;;;;;;21.40;85.00;;;;;;5110869;28;19939;-96
2022/06/21 02:32:27;;;;;;;;;;;21.40;86.20;;;;;;5111203;28;20040;-96
2022/06/21 02:34:55;;;;;;;;;;;21.60;86.20;;;;;;5110772;28;19948;-95
2022/06/21 02:37:22;;;;;;;;;;;21.60;86.10;;;;;;5111838;28;19946;-96
2022/06/21 02:39:48;;;;;;;;;;;21.70;85.90;;;;;;5111150;28;19939;-96
2022/06/21 02:42:18;;;;;;;;;;;21.80;85.30;;;;;;5113492;28;19963;-95
2022/06/21 02:44:47;;;;;;;;;;;21.70;85.30;;;;;;5112679;28;19946;-95
2022/06/21 02:47:16;;;;;;;;;;;21.70;85.40;;;;;;5112442;28;19948;-96
2022/06/21 02:50:01;;;;;;;;;;;21.60;85.30;;;;;;5112349;28;19944;-96
2022/06/21 02:52:27;;;;;;;;;;;21.60;85.40;;;;;;5112995;28;19947;-94
2022/06/21 02:54:59;;;;;;;;;;;21.80;85.20;;;;;;5112088;28;19949;-96
2022/06/21 02:57:30;;;;;;;;;;;21.90;85.10;;;;;;5113262;28;19936;-96
2022/06/21 02:59:58;;;;;;;;;;;22.00;84.70;;;;;;5111902;28;19969;-96
2022/06/21 03:02:25;;;;;;;;;;;22.00;84.80;;;;;;5111329;28;19975;-96
2022/06/21 03:04:59;;;;;;;;;;;21.90;84.80;;;;;;5109720;28;19985;-96
2022/06/21 03:07:30;;;;;;;;;;;21.80;84.70;;;;;;5104070;28;20013;-96
2022/06/21 03:09:56;;;;;;;;;;;21.60;85.20;;;;;;5103458;28;19942;-95
2022/06/21 03:12:24;;;;;;;;;;;21.50;85.50;;;;;;5099289;28;20405;-96
2022/06/21 03:14:51;;;;;;;;;;;21.40;85.50;;;;;;5101177;28;19950;-96
2022/06/21 03:17:18;;;;;;;;;;;21.30;84.90;;;;;;5106595;28;19938;-96
2022/06/21 03:19:46;;;;;;;;;;;21.20;85.20;;;;;;5109340;28;19955;-96
2022/06/21 03:22:20;;;;;;;;;;;21.10;85.90;;;;;;5110908;28;19976;-96
2022/06/21 03:24:48;;;;;;;;;;;21.20;86.20;;;;;;5110343;28;20086;-96
2022/06/21 03:27:31;;;;;;;;;;;21.30;86.50;;;;;;5111036;28;19992;-96
2022/06/21 03:29:57;;;;;;;;;;;21.40;86.20;;;;;;5110568;28;20000;-96
2022/06/21 03:32:23;;;;;;;;;;;21.50;85.80;;;;;;5110985;28;20017;-96
2022/06/21 03:34:50;;;;;;;;;;;21.60;85.70;;;;;;5109119;28;19988;-96
2022/06/21 03:37:16;;;;;;;;;;;21.80;85.50;;;;;;5110375;28;20465;-96
2022/06/21 03:42:29;;;;;;;;;;;21.70;85.00;;;;;;5111194;28;19981;-95
2022/06/21 03:45:01;;;;;;;;;;;21.70;85.50;;;;;;5111270;28;19946;-96
2022/06/21 03:47:38;;;;;;;;;;;21.70;85.40;;;;;;5112917;28;19942;-96
2022/06/21 03:50:07;;;;;;;;;;;21.60;85.60;;;;;;5112139;28;19947;-96
2022/06/21 03:52:42;;;;;;;;;;;21.50;86.10;;;;;;5111887;28;20020;-96
2022/06/21 03:55:14;;;;;;;;;;;21.50;86.20;;;;;;5110719;28;19954;-96
2022/06/21 03:57:43;;;;;;;;;;;21.30;85.50;;;;;;5112902;28;19949;-96
2022/06/21 04:00:11;;;;;;;;;;;21.20;86.00;;;;;;5118337;22;19948;-96
2022/06/21 04:02:37;;;;;;;;;;;21.20;86.70;;;;;;5098754;28;19972;-96
2022/06/21 04:05:17;;;;;;;;;;;21.20;87.10;;;;;;5078290;28;19943;-96
2022/06/21 04:07:55;;;;;;;;;;;21.30;87.20;;;;;;5080062;28;20049;-96
2022/06/21 04:10:33;;;;;;;;;;;21.30;87.10;;;;;;5080695;28;19942;-96
2022/06/21 04:13:18;;;;;;;;;;;21.50;86.90;;;;;;5080307;28;19947;-96
2022/06/21 04:15:48;;;;;;;;;;;21.60;86.70;;;;;;5073001;28;19998;-96
2022/06/21 04:18:18;;;;;;;;;;;21.70;86.30;;;;;;5101692;28;19946;-96
2022/06/21 04:20:53;;;;;;;;;;;21.80;86.70;;;;;;5086736;28;19929;-96
2022/06/21 04:23:19;;;;;;;;;;;21.90;86.20;;;;;;5101803;28;19942;-96
2022/06/21 04:25:48;;;;;;;;;;;22.00;85.80;;;;;;5086612;28;19964;-95
2022/06/21 04:28:19;;;;;;;;;;;22.00;85.60;;;;;;5086051;28;20349;-96
2022/06/21 04:30:50;;;;;;;;;;;22.00;85.50;;;;;;5086645;28;19944;-94
2022/06/21 04:33:19;;;;;;;;;;;22.10;85.80;;;;;;5086618;28;20006;-96
2022/06/21 04:35:48;;;;;;;;;;;22.10;85.80;;;;;;5086606;28;19949;-96
2022/06/21 04:38:16;;;;;;;;;;;22.00;85.30;;;;;;5085659;28;19945;-95
2022/06/21 04:40:57;;;;;;;;;;;22.10;85.20;;;;;;5102042;28;20009;-96
2022/06/21 04:43:26;;;;;;;;;;;22.10;85.10;;;;;;5101653;28;19942;-96
2022/06/21 04:45:55;;;;;;;;;;;22.10;85.10;;;;;;5105832;28;19951;-95
2022/06/21 04:48:24;;;;;;;;;;;22.20;85.20;;;;;;5090893;28;20408;-96
2022/06/21 04:50:53;;;;;;;;;;;22.30;85.00;;;;;;5091051;28;19943;-96
2022/06/21 04:53:37;;;;;;;;;;;22.50;85.00;;;;;;5101475;28;19999;-95
2022/06/21 04:56:06;;;;;;;;;;;22.50;84.90;;;;;;5084290;28;19940;-96
2022/06/21 04:58:32;;;;;;;;;;;22.60;84.80;;;;;;5084734;28;19983;-96
2022/06/21 05:00:59;;;;;;;;;;;22.70;84.60;;;;;;5100797;28;19978;-96
2022/06/21 05:03:24;;;;;;;;;;;22.80;84.70;;;;;;5101058;28;19948;-96
2022/06/21 05:05:50;;;;;;;;;;;22.90;84.50;;;;;;5084674;28;19937;-95
2022/06/21 05:08:18;;;;;;;;;;;23.00;84.30;;;;;;5090161;28;19962;-95
2022/06/21 05:10:46;;;;;;;;;;;23.00;83.90;;;;;;5090809;28;19941;-95
2022/06/21 05:13:32;;;;;;;;;;;23.10;83.80;;;;;;5091301;28;19979;-95
2022/06/21 05:16:01;;;;;;;;;;;23.30;83.40;;;;;;5092999;28;19999;-96
2022/06/21 05:18:38;;;;;;;;;;;23.30;83.60;;;;;;5096610;28;19949;-95
2022/06/21 05:21:10;;;;;;;;;;;23.30;83.60;;;;;;5095984;28;19972;-95
2022/06/21 05:23:37;;;;;;;;;;;23.40;83.90;;;;;;5096972;28;19948;-96
2022/06/21 05:26:07;;;;;;;;;;;23.50;84.20;;;;;;5096118;28;19954;-96
2022/06/21 05:28:37;;;;;;;;;;;23.50;84.20;;;;;;5096194;28;19927;-96
2022/06/21 05:31:09;;;;;;;;;;;23.60;83.90;;;;;;5094927;28;19953;-95
2022/06/21 05:33:35;;;;;;;;;;;23.60;83.70;;;;;;5094719;28;20295;-96
2022/06/21 05:36:02;;;;;;;;;;;23.70;83.90;;;;;;5095784;28;19990;-96
2022/06/21 05:38:31;;;;;;;;;;;23.80;83.50;;;;;;5095171;28;19943;-96
2022/06/21 05:40:57;;;;;;;;;;;23.80;83.00;;;;;;5094311;28;19983;-96
2022/06/21 05:43:29;;;;;;;;;;;23.90;82.00;;;;;;5092290;28;19941;-96
2022/06/21 05:46:03;;;;;;;;;;;23.90;81.70;;;;;;5092241;28;19964;-94
2022/06/21 05:48:31;;;;;;;;;;;24.10;82.10;;;;;;5091869;28;19943;-95
2022/06/21 05:50:58;;;;;;;;;;;24.30;81.00;;;;;;5092557;28;19926;-95
2022/06/21 05:53:24;;;;;;;;;;;24.30;80.90;;;;;;5092949;28;19949;-96
2022/06/21 05:55:50;;;;;;;;;;;24.50;80.50;;;;;;5091286;28;20001;-96
2022/06/21 05:58:25;;;;;;;;;;;24.70;78.30;;;;;;5092589;28;19946;-94
2022/06/21 06:00:51;;;;;;;;;;;24.80;78.30;;;;;;5096988;28;19985;-96
2022/06/21 06:03:21;;;;;;;;;;;24.90;77.10;;;;;;5096736;28;20014;-95
2022/06/21 06:05:49;;;;;;;;;;;25.00;76.30;;;;;;5097160;28;20417;-95
2022/06/21 06:08:27;;;;;;;;;;;25.10;75.00;;;;;;5097983;28;19965;-96
2022/06/21 06:11:00;;;;;;;;;;;25.20;74.20;;;;;;5094737;28;19945;-96
2022/06/21 06:13:29;;;;;;;;;;;25.30;72.90;;;;;;5097421;28;19952;-95
2022/06/21 06:16:03;;;;;;;;;;;25.30;70.80;;;;;;5097460;28;19946;-96
2022/06/21 06:18:40;;;;;;;;;;;25.30;70.30;;;;;;5079898;28;19942;-96
2022/06/21 06:21:15;;;;;;;;;;;25.40;71.50;;;;;;5097290;28;19988;-95
2022/06/21 06:24:03;;;;;;;;;;;25.40;70.80;;;;;;5098167;28;19943;-95
2022/06/21 06:26:39;;;;;;;;;;;25.40;69.10;;;;;;5097471;28;20021;-96
2022/06/21 06:29:23;;;;;;;;;;;25.50;69.60;;;;;;5097294;28;19945;-95
2022/06/21 06:32:01;;;;;;;;;;;25.50;70.20;;;;;;5075559;28;19943;-95
2022/06/21 06:34:31;;;;;;;;;;;25.60;71.50;;;;;;5074939;28;19946;-96
2022/06/21 06:37:01;;;;;;;;;;;25.70;70.40;;;;;;5076802;28;19935;-95
2022/06/21 06:39:29;;;;;;;;;;;25.80;70.80;;;;;;5075097;28;19953;-94
2022/06/21 06:42:04;;;;;;;;;;;25.80;71.10;;;;;;5075075;28;20495;-95
2022/06/21 06:44:33;;;;;;;;;;;26.00;71.00;;;;;;5074493;28;19936;-94
2022/06/21 06:47:01;;;;;;;;;;;26.10;69.90;;;;;;5090581;28;20398;-94
2022/06/21 06:49:30;;;;;;;;;;;26.20;69.80;;;;;;5075275;28;19940;-95
2022/06/21 06:51:58;;;;;;;;;;;26.20;68.80;;;;;;5074813;28;19950;-95
2022/06/21 06:54:30;;;;;;;;;;;26.30;67.80;;;;;;5074841;28;19946;-95
2022/06/21 06:57:02;;;;;;;;;;;26.30;68.80;;;;;;5074731;28;19946;-95
2022/06/21 06:59:27;;;;;;;;;;;26.30;69.30;;;;;;5074737;28;19940;-95
2022/06/21 07:02:02;;;;;;;;;;;26.30;68.90;;;;;;5075654;28;19978;-94
2022/06/21 07:04:31;;;;;;;;;;;26.30;69.10;;;;;;5077293;28;19939;-96
2022/06/21 07:06:59;;;;;;;;;;;26.30;68.90;;;;;;5076894;28;19987;-96
2022/06/21 07:09:30;;;;;;;;;;;26.20;69.10;;;;;;5076762;28;19939;-96
2022/06/21 07:11:58;;;;;;;;;;;26.20;68.40;;;;;;5077469;28;19938;-96
2022/06/21 07:14:26;;;;;;;;;;;26.20;69.10;;;;;;5076715;28;19993;-96
2022/06/21 07:16:54;;;;;;;;;;;26.30;68.60;;;;;;5079533;28;20356;-96
2022/06/21 07:19:19;;;;;;;;;;;26.30;69.30;;;;;;5075692;28;20384;-96
2022/06/21 07:21:45;;;;;;;;;;;26.50;69.80;;;;;;5076844;28;19970;-96
2022/06/21 07:24:15;;;;;;;;;;;26.60;69.70;;;;;;5075574;28;20040;-96
2022/06/21 07:26:52;;;;;;;;;;;26.70;68.30;;;;;;5077250;28;19965;-96
2022/06/21 07:29:37;;;;;;;;;;;26.80;67.40;;;;;;5082796;28;19947;-96
2022/06/21 07:32:10;;;;;;;;;;;26.80;67.60;;;;;;5078377;28;19963;-95
2022/06/21 07:34:42;;;;;;;;;;;26.70;67.50;;;;;;5079758;28;19938;-96
2022/06/21 07:37:13;;;;;;;;;;;26.80;69.20;;;;;;5081023;28;20009;-96
2022/06/21 07:39:52;;;;;;;;;;;26.70;68.20;;;;;;5087218;28;19959;-96
2022/06/21 07:42:23;;;;;;;;;;;26.70;67.50;;;;;;5085607;28;19977;-96
2022/06/21 07:45:00;;;;;;;;;;;26.80;68.40;;;;;;5081635;28;19986;-96
2022/06/21 07:47:32;;;;;;;;;;;26.80;67.60;;;;;;5078915;28;19976;-96
2022/06/21 07:50:01;;;;;;;;;;;26.90;67.80;;;;;;5076429;28;19962;-96
2022/06/21 07:52:29;;;;;;;;;;;27.00;68.20;;;;;;5075757;28;19941;-96
2022/06/21 07:54:57;;;;;;;;;;;27.00;67.30;;;;;;5075937;28;20027;-94
2022/06/21 07:57:26;;;;;;;;;;;27.10;68.20;;;;;;5075084;28;19947;-95
2022/06/21 07:59:59;;;;;;;;;;;27.00;67.00;;;;;;5079116;28;19946;-95
2022/06/21 08:08:14;;;;;;;;;;;27.20;66.10;;;;;;5080451;28;19951;-95
2022/06/21 08:10:46;;;;;;;;;;;27.20;65.30;;;;;;5079321;28;19969;-95
2022/06/21 08:13:12;;;;;;;;;;;27.30;65.60;;;;;;5073739;28;19950;-94
2022/06/21 08:15:41;;;;;;;;;;;27.40;65.60;;;;;;5073507;28;20026;-94
2022/06/21 08:18:14;;;;;;;;;;;27.50;67.10;;;;;;5075731;28;19970;-93
2022/06/21 08:20:45;;;;;;;;;;;27.50;65.80;;;;;;5077834;28;20469;-95
2022/06/21 08:23:17;;;;;;;;;;;27.70;66.00;;;;;;5077809;28;20310;-95
2022/06/21 08:25:47;;;;;;;;;;;27.80;67.20;;;;;;5093196;28;20020;-95
2022/06/21 08:28:13;;;;;;;;;;;28.00;65.00;;;;;;5077457;28;20029;-95
2022/06/21 08:30:50;;;;;;;;;;;28.20;66.20;;;;;;5077466;28;20029;-94
2022/06/21 08:33:21;;;;;;;;;;;28.30;63.70;;;;;;5077490;28;19939;-94
2022/06/21 08:35:58;;;;;;;;;;;28.30;62.60;;;;;;5076181;28;19944;-93
2022/06/21 08:38:37;;;;;;;;;;;28.30;61.80;;;;;;5076909;28;20000;-93
2022/06/21 08:41:03;;;;;;;;;;;28.20;60.80;;;;;;5076344;28;19961;-94
2022/06/21 08:43:49;;;;;;;;;;;28.20;59.90;;;;;;5077410;28;20350;-94
2022/06/21 08:46:24;;;;;;;;;;;28.30;61.90;;;;;;5055526;28;20291;-94
2022/06/21 08:48:53;;;;;;;;;;;28.30;60.90;;;;;;5077441;28;19951;-95
2022/06/21 08:51:30;;;;;;;;;;;28.30;62.70;;;;;;5071885;28;20013;-94
2022/06/21 08:54:14;;;;;;;;;;;28.40;61.50;;;;;;5076525;28;20397;-95
2022/06/21 08:56:43;;;;;;;;;;;28.30;61.70;;;;;;5076999;28;19942;-95
2022/06/21 08:59:14;;;;;;;;;;;28.30;59.80;;;;;;5076945;28;20399;-95
2022/06/21 09:01:43;;;;;;;;;;;28.30;61.50;;;;;;5076885;28;19983;-95
2022/06/21 09:04:14;;;;;;;;;;;28.40;60.90;;;;;;5091909;28;20422;-94
2022/06/21 09:06:43;;;;;;;;;;;28.50;61.50;;;;;;5074968;28;20042;-95
2022/06/21 09:09:17;;;;;;;;;;;28.70;60.90;;;;;;5076809;28;20468;-93
2022/06/21 09:11:45;;;;;;;;;;;28.80;59.90;;;;;;5075984;28;19939;-93
2022/06/21 09:14:11;;;;;;;;;;;28.90;60.30;;;;;;5092511;28;20353;-95
2022/06/21 09:17:03;;;;;;;;;;;29.00;59.00;;;;;;5077056;28;19942;-95
2022/06/21 09:19:31;;;;;;;;;;;29.10;59.00;;;;;;5060481;28;19998;-95
2022/06/21 09:22:02;;;;;;;;;;;29.20;58.40;;;;;;5076288;28;19962;-95
2022/06/21 09:24:51;;;;;;;;;;;29.30;60.70;;;;;;5076430;28;19991;-94
2022/06/21 09:27:25;;;;;;;;;;;29.30;58.50;;;;;;5076834;28;20032;-94
2022/06/21 09:30:01;;;;;;;;;;;29.30;59.00;;;;;;5091372;28;19948;-94
2022/06/21 09:32:39;;;;;;;;;;;29.50;58.90;;;;;;5076584;28;19946;-95
2022/06/21 09:35:09;;;;;;;;;;;29.70;59.00;;;;;;5093944;28;19944;-96
2022/06/21 09:37:45;;;;;;;;;;;29.70;58.90;;;;;;5096475;28;19978;-94
2022/06/21 09:40:13;;;;;;;;;;;29.90;59.50;;;;;;5096621;28;19940;-95
2022/06/21 09:42:42;;;;;;;;;;;29.90;58.80;;;;;;5094862;28;19950;-95
2022/06/21 09:45:11;;;;;;;;;;;29.80;57.70;;;;;;5096253;28;19949;-95
2022/06/21 09:47:55;;;;;;;;;;;29.90;58.50;;;;;;5096209;28;19947;-95
2022/06/21 09:50:24;;;;;;;;;;;30.00;57.80;;;;;;5096261;28;19976;-95
2022/06/21 09:53:04;;;;;;;;;;;30.20;59.60;;;;;;5096205;28;20324;-95
2022/06/21 10:00:06;;;;;;;;;;;30.20;55.00;;;;;;5111687;27;19940;-94
2022/06/21 10:02:34;;;;;;;;;;;30.00;55.70;;;;;;5111323;28;19952;-96
2022/06/21 10:05:11;;;;;;;;;;;29.90;55.80;;;;;;5111318;28;20031;-94
2022/06/21 10:07:49;;;;;;;;;;;30.00;55.80;;;;;;5111534;28;19937;-95
2022/06/21 10:10:29;;;;;;;;;;;30.20;56.60;;;;;;5111456;28;19939;-96
2022/06/21 10:12:55;;;;;;;;;;;30.40;55.90;;;;;;5111158;28;19946;-95
2022/06/21 10:15:28;;;;;;;;;;;30.60;56.90;;;;;;5111277;28;20412;-95
2022/06/21 10:17:53;;;;;;;;;;;30.70;57.90;;;;;;5111439;28;20055;-96
2022/06/21 10:20:31;;;;;;;;;;;30.80;55.00;;;;;;5111370;28;19981;-96
2022/06/21 10:22:56;;;;;;;;;;;30.90;54.80;;;;;;5110163;28;20035;-95
2022/06/21 10:25:22;;;;;;;;;;;30.90;53.00;;;;;;5111303;28;20048;-96
2022/06/21 10:27:59;;;;;;;;;;;30.90;53.90;;;;;;5111278;28;19946;-95
2022/06/21 10:30:31;;;;;;;;;;;30.90;52.50;;;;;;5110026;28;19945;-96
2022/06/21 10:33:22;;;;;;;;;;;30.90;54.80;;;;;;5109947;28;20032;-96
2022/06/21 10:36:06;;;;;;;;;;;30.90;52.70;;;;;;5111109;28;19942;-95
2022/06/21 10:38:47;;;;;;;;;;;30.90;52.50;;;;;;5111021;28;19955;-95
2022/06/21 10:41:30;;;;;;;;;;;30.90;52.80;;;;;;5110948;28;19989;-95
2022/06/21 10:44:04;;;;;;;;;;;30.70;52.60;;;;;;5109723;28;19943;-95
2022/06/21 10:46:53;;;;;;;;;;;30.60;53.80;;;;;;5110841;28;20096;-96
2022/06/21 10:49:18;;;;;;;;;;;30.90;53.50;;;;;;5110718;28;19946;-95
2022/06/21 10:51:46;;;;;;;;;;;31.20;54.70;;;;;;5110719;28;19962;-94
2022/06/21 10:54:15;;;;;;;;;;;31.40;52.40;;;;;;5110579;28;19947;-95
2022/06/21 10:57:14;;;;;;;;;;;31.60;54.40;;;;;;5110606;28;19978;-95
2022/06/21 11:02:34;;;;;;;;;;;31.90;49.80;;;;;;5090504;28;19951;-95
2022/06/21 11:05:08;;;;;;;;;;;31.80;50.90;;;;;;5090151;28;19936;-95
2022/06/21 11:08:06;;;;;;;;;;;32.00;51.60;;;;;;5090095;28;19941;-96
2022/06/21 11:10:35;;;;;;;;;;;31.90;50.60;;;;;;5056214;28;19944;-95
2022/06/21 11:13:04;;;;;;;;;;;31.90;50.30;;;;;;5076565;28;19996;-96
2022/06/21 11:15:36;;;;;;;;;;;32.00;51.20;;;;;;5076534;28;20425;-95
2022/06/21 11:18:02;;;;;;;;;;;32.30;51.20;;;;;;5076664;28;19977;-95
2022/06/21 11:20:33;;;;;;;;;;;32.50;51.60;;;;;;5076521;28;20383;-96
2022/06/21 11:23:12;;;;;;;;;;;32.60;51.00;;;;;;5076247;28;20465;-95
2022/06/21 11:25:48;;;;;;;;;;;32.60;49.60;;;;;;5076256;28;19957;-96
2022/06/21 11:28:13;;;;;;;;;;;32.50;49.50;;;;;;5075853;28;20468;-95
2022/06/21 11:31:08;;;;;;;;;;;32.30;48.80;;;;;;5079153;28;19938;-96
2022/06/21 11:33:52;;;;;;;;;;;32.60;49.30;;;;;;5059014;28;20042;-96
2022/06/21 11:36:32;;;;;;;;;;;32.90;51.50;;;;;;5096802;28;20073;-96
2022/06/21 11:38:58;;;;;;;;;;;33.20;48.50;;;;;;5084140;28;20332;-95
2022/06/21 11:44:25;;;;;;;;;;;33.40;47.20;;;;;;5076124;28;19946;-94
2022/06/21 11:47:11;;;;;;;;;;;33.60;47.10;;;;;;5074706;28;20384;-95
2022/06/21 11:49:39;;;;;;;;;;;33.80;47.80;;;;;;5075505;28;20394;-95
2022/06/21 11:52:14;;;;;;;;;;;34.10;44.70;;;;;;5074784;28;20227;-94
2022/06/21 11:54:40;;;;;;;;;;;34.20;44.50;;;;;;5075712;28;19945;-94
2022/06/21 11:57:34;;;;;;;;;;;34.30;45.20;;;;;;5075777;28;19940;-96
2022/06/21 12:00:07;;;;;;;;;;;34.40;45.00;;;;;;5066008;28;19957;-96
2022/06/21 12:02:44;;;;;;;;;;;34.40;44.10;;;;;;5075749;28;20319;-94
2022/06/21 12:05:20;;;;;;;;;;;34.40;43.50;;;;;;5075644;28;19945;-94
2022/06/21 12:07:45;;;;;;;;;;;34.10;45.40;;;;;;5086092;28;20036;-94
2022/06/21 12:10:15;;;;;;;;;;;33.90;46.70;;;;;;5095575;28;20433;-95
2022/06/21 12:12:46;;;;;;;;;;;34.20;45.40;;;;;;5096317;28;19945;-96
2022/06/21 12:15:31;;;;;;;;;;;34.10;45.00;;;;;;5095680;28;19941;-94
2022/06/21 12:18:01;;;;;;;;;;;34.20;45.40;;;;;;5078651;28;20410;-93
2022/06/21 12:20:26;;;;;;;;;;;34.50;44.40;;;;;;5081364;28;19941;-92
2022/06/21 12:23:12;;;;;;;;;;;34.70;43.80;;;;;;5073954;28;20345;-93
2022/06/21 12:25:38;;;;;;;;;;;34.90;44.40;;;;;;5090861;28;20012;-92
2022/06/21 12:28:11;;;;;;;;;;;35.10;42.90;;;;;;5095117;28;20038;-93
2022/06/21 12:30:37;;;;;;;;;;;35.70;45.40;;;;;;5086285;28;20094;-93
2022/06/21 12:33:04;;;;;;;;;;;35.90;41.60;;;;;;5086653;28;20004;-94
2022/06/21 12:35:56;;;;;;;;;;;35.80;43.60;;;;;;5074919;28;19956;-95
2022/06/21 12:38:36;;;;;;;;;;;35.90;41.50;;;;;;5075633;28;19974;-95
2022/06/21 12:41:14;;;;;;;;;;;36.60;42.20;;;;;;5074872;28;20417;-95
2022/06/21 12:43:39;;;;;;;;;;;37.10;39.60;;;;;;5074913;28;20026;-95
2022/06/21 12:46:07;;;;;;;;;;;37.10;38.00;;;;;;5074841;28;20025;-96
2022/06/21 12:48:51;;;;;;;;;;;37.20;40.10;;;;;;5075210;28;19952;-95
2022/06/21 12:51:27;;;;;;;;;;;36.90;39.70;;;;;;5074773;28;19965;-96
2022/06/21 12:53:59;;;;;;;;;;;36.50;41.00;;;;;;5074699;28;20028;-96
2022/06/21 12:56:42;;;;;;;;;;;36.30;40.70;;;;;;5074668;28;19944;-96
2022/06/21 12:59:16;;;;;;;;;;;36.10;40.70;;;;;;5073846;28;19987;-95
2022/06/21 13:01:58;;;;;;;;;;;35.60;41.20;;;;;;5074335;28;19949;-94
2022/06/21 13:04:44;;;;;;;;;;;35.60;43.30;;;;;;5074480;28;19945;-95
2022/06/21 13:07:20;;;;;;;;;;;36.20;42.20;;;;;;5073994;28;20395;-95
2022/06/21 13:09:51;;;;;;;;;;;36.80;38.90;;;;;;5074477;28;19947;-95
2022/06/21 13:12:36;;;;;;;;;;;37.10;38.10;;;;;;5074919;28;20038;-95
2022/06/21 13:15:11;;;;;;;;;;;37.60;38.30;;;;;;5074298;28;19941;-95
2022/06/21 13:17:55;;;;;;;;;;;38.90;37.40;;;;;;5074429;28;19944;-95
2022/06/21 13:20:28;;;;;;;;;;;39.70;35.10;;;;;;5074355;28;20390;-95
2022/06/21 13:22:54;;;;;;;;;;;40.50;34.00;;;;;;5074222;28;19992;-95
2022/06/21 13:25:23;;;;;;;;;;;41.00;32.10;;;;;;5074058;28;19963;-94
2022/06/21 13:28:09;;;;;;;;;;;41.00;31.70;;;;;;5073941;28;19978;-95
2022/06/21 13:30:38;;;;;;;;;;;41.00;31.70;;;;;;5072792;28;19989;-95
2022/06/21 13:33:13;;;;;;;;;;;41.20;31.70;;;;;;5073793;28;19945;-95
2022/06/21 13:35:52;;;;;;;;;;;41.50;32.60;;;;;;5074049;28;19942;-95
2022/06/21 13:38:24;;;;;;;;;;;42.20;33.00;;;;;;5073841;28;19945;-95
2022/06/21 13:40:55;;;;;;;;;;;40.80;32.50;;;;;;5073775;28;19945;-95
2022/06/21 13:43:30;;;;;;;;;;;40.60;34.30;;;;;;5074207;28;19971;-94
2022/06/21 13:46:10;;;;;;;;;;;38.70;35.50;;;;;;5073792;28;19979;-95
2022/06/21 13:48:41;;;;;;;;;;;38.10;36.00;;;;;;5073819;28;19951;-95
2022/06/21 13:51:13;;;;;;;;;;;38.80;37.10;;;;;;5073961;28;19929;-94
2022/06/21 13:53:41;;;;;;;;;;;39.40;34.00;;;;;;5073873;28;19941;-95
2022/06/21 13:56:14;;;;;;;;;;;39.60;34.10;;;;;;5073680;28;19944;-95
2022/06/21 13:58:45;;;;;;;;;;;40.10;33.60;;;;;;5073726;28;20429;-94
2022/06/21 14:01:17;;;;;;;;;;;40.60;33.70;;;;;;5073775;28;19944;-94
2022/06/21 14:03:45;;;;;;;;;;;41.50;31.60;;;;;;5073926;28;19952;-94
2022/06/21 14:06:17;;;;;;;;;;;41.10;31.90;;;;;;5073715;28;19938;-95
2022/06/21 14:08:49;;;;;;;;;;;40.70;32.10;;;;;;5073652;28;19976;-94
2022/06/21 14:11:15;;;;;;;;;;;40.80;32.70;;;;;;5073553;28;19941;-94
2022/06/21 14:13:46;;;;;;;;;;;40.10;33.70;;;;;;5072310;28;20293;-94
2022/06/21 14:16:20;;;;;;;;;;;40.10;33.00;;;;;;5073636;28;20311;-94
2022/06/21 14:18:51;;;;;;;;;;;40.90;33.90;;;;;;5073805;28;19945;-94
2022/06/21 14:21:26;;;;;;;;;;;40.50;32.40;;;;;;5073593;28;19982;-93
2022/06/21 14:24:02;;;;;;;;;;;40.10;32.30;;;;;;5073695;28;20004;-95
2022/06/21 14:26:33;;;;;;;;;;;39.70;32.20;;;;;;5073356;28;19954;-95
2022/06/21 14:29:15;;;;;;;;;;;39.50;32.40;;;;;;5073371;28;20447;-94
2022/06/21 14:31:49;;;;;;;;;;;39.20;32.30;;;;;;5073564;28;20047;-94
2022/06/21 14:34:31;;;;;;;;;;;39.10;32.70;;;;;;5073427;28;19995;-95
2022/06/21 14:37:01;;;;;;;;;;;39.10;34.00;;;;;;5073265;28;19942;-94
2022/06/21 14:39:39;;;;;;;;;;;38.70;34.40;;;;;;5074307;28;19945;-94
2022/06/21 14:42:14;;;;;;;;;;;38.50;34.30;;;;;;5096652;28;19951;-95
2022/06/21 14:44:59;;;;;;;;;;;38.10;33.70;;;;;;5073861;28;19944;-94
2022/06/21 14:47:44;;;;;;;;;;;38.10;35.30;;;;;;5087653;28;19944;-94
2022/06/21 14:50:09;;;;;;;;;;;38.80;33.20;;;;;;5090269;28;20391;-95
2022/06/21 14:52:35;;;;;;;;;;;39.00;31.80;;;;;;5085120;28;20414;-94
2022/06/21 14:55:20;;;;;;;;;;;39.10;32.70;;;;;;5103979;28;20013;-93
2022/06/21 14:58:04;;;;;;;;;;;40.00;32.70;;;;;;5096772;28;19973;-94
2022/06/21 15:00:42;;;;;;;;;;;40.10;32.30;;;;;;5096926;28;19987;-94
2022/06/21 15:03:26;;;;;;;;;;;39.40;30.70;;;;;;5093430;28;19950;-94
2022/06/21 15:05:59;;;;;;;;;;;39.10;32.00;;;;;;5076473;28;19942;-93